sensor_id;sensor_type;location;lat;lon;timestamp;temperature;humidity
11617;DHT22;5864;52.998;9.068;2022-10-31T00:00:42;14.40;99.90
11617;DHT22;5864;52.998;9.068;2022-10-31T00:03:09;14.40;99.90
11617;DHT22;5864;52.998;9.068;2022-10-31T00:05:40;14.50;99.90
11617;DHT22;5864;52.998;9.068;2022-10-31T00:08:08;14.40;99.90
11617;DHT22;5864;52.998;9.068;2022-10-31T00:10:37;14.40;99.90
11617;DHT22;5864;52.998;9.068;2022-10-31T00:13:06;14.30;99.90
11617;DHT22;5864;52.998;9.068;2022-10-31T00:15:33;14.30;99.90
11617;DHT22;5864;52.998;9.068;2022-10-31T00:18:01;14.30;99.90
11617;DHT22;5864;52.998;9.068;2022-10-31T00:20:29;14.30;99.90
11617;DHT22;5864;52.998;9.068;2022-10-31T00:22:57;14.20;99.90
11617;DHT22;5864;52.998;9.068;2022-10-31T00:25:26;14.20;99.90
11617;DHT22;5864;52.998;9.068;2022-10-31T00:27:53;14.20;99.90
11617;DHT22;5864;52.998;9.068;2022-10-31T00:30:22;14.20;99.90
11617;DHT22;5864;52.998;9.068;2022-10-31T00:32:49;14.10;99.90
11617;DHT22;5864;52.998;9.068;2022-10-31T00:35:16;14.10;99.90
11617;DHT22;5864;52.998;9.068;2022-10-31T00:37:44;14.10;99.90
11617;DHT22;5864;52.998;9.068;2022-10-31T00:40:11;14.10;99.90
11617;DHT22;5864;52.998;9.068;2022-10-31T00:42:39;14.20;99.90
11617;DHT22;5864;52.998;9.068;2022-10-31T00:45:08;14.20;99.90
11617;DHT22;5864;52.998;9.068;2022-10-31T00:47:37;14.10;99.90
11617;DHT22;5864;52.998;9.068;2022-10-31T00:50:05;14.10;99.90
11617;DHT22;5864;52.998;9.068;2022-10-31T00:52:33;14.20;99.90
11617;DHT22;5864;52.998;9.068;2022-10-31T00:55:00;14.10;99.90
11617;DHT22;5864;52.998;9.068;2022-10-31T00:57:27;14.10;99.90
11617;DHT22;5864;52.998;9.068;2022-10-31T00:59:55;14.10;99.90
11617;DHT22;5864;52.998;9.068;2022-10-31T01:02:22;14.10;99.90
11617;DHT22;5864;52.998;9.068;2022-10-31T01:04:51;14.10;99.90
11617;DHT22;5864;52.998;9.068;2022-10-31T01:07:18;14.20;99.90
11617;DHT22;5864;52.998;9.068;2022-10-31T01:09:45;14.10;99.90
11617;DHT22;5864;52.998;9.068;2022-10-31T01:12:12;14.00;99.90
11617;DHT22;5864;52.998;9.068;2022-10-31T01:14:42;14.10;99.90
11617;DHT22;5864;52.998;9.068;2022-10-31T01:17:10;14.10;99.90
11617;DHT22;5864;52.998;9.068;2022-10-31T01:19:37;14.10;99.90
11617;DHT22;5864;52.998;9.068;2022-10-31T01:22:06;14.10;99.90
11617;DHT22;5864;52.998;9.068;2022-10-31T01:24:33;14.00;99.90
11617;DHT22;5864;52.998;9.068;2022-10-31T01:27:01;14.00;99.90
11617;DHT22;5864;52.998;9.068;2022-10-31T01:29:28;14.00;99.90
11617;DHT22;5864;52.998;9.068;2022-10-31T01:31:56;14.00;99.90
11617;DHT22;5864;52.998;9.068;2022-10-31T01:34:23;14.00;99.90
11617;DHT22;5864;52.998;9.068;2022-10-31T01:36:50;14.00;99.90
11617;DHT22;5864;52.998;9.068;2022-10-31T01:39:19;13.90;99.90
11617;DHT22;5864;52.998;9.068;2022-10-31T01:41:48;13.90;99.90
11617;DHT22;5864;52.998;9.068;2022-10-31T01:47:32;13.90;99.90
11617;DHT22;5864;52.998;9.068;2022-10-31T01:50:04;13.80;99.90
11617;DHT22;5864;52.998;9.068;2022-10-31T01:52:36;13.80;99.90
11617;DHT22;5864;52.998;9.068;2022-10-31T01:55:10;13.80;99.90
11617;DHT22;5864;52.998;9.068;2022-10-31T01:57:41;13.80;99.90
11617;DHT22;5864;52.998;9.068;2022-10-31T02:00:10;13.80;99.90
11617;DHT22;5864;52.998;9.068;2022-10-31T02:02:38;13.80;99.90
11617;DHT22;5864;52.998;9.068;2022-10-31T02:05:07;13.80;99.90
11617;DHT22;5864;52.998;9.068;2022-10-31T02:07:39;13.80;99.90
11617;DHT22;5864;52.998;9.068;2022-10-31T02:10:11;13.80;99.90
11617;DHT22;5864;52.998;9.068;2022-10-31T02:12:38;13.80;99.90
11617;DHT22;5864;52.998;9.068;2022-10-31T02:15:07;13.90;99.90
11617;DHT22;5864;52.998;9.068;2022-10-31T02:17:35;13.90;99.90
11617;DHT22;5864;52.998;9.068;2022-10-31T02:20:11;13.70;99.90
11617;DHT22;5864;52.998;9.068;2022-10-31T02:23:04;13.90;99.90
11617;DHT22;5864;52.998;9.068;2022-10-31T02:25:49;13.80;99.90
11617;DHT22;5864;52.998;9.068;2022-10-31T02:28:29;13.80;99.90
11617;DHT22;5864;52.998;9.068;2022-10-31T02:31:11;13.80;99.90
11617;DHT22;5864;52.998;9.068;2022-10-31T02:33:45;13.80;99.90
11617;DHT22;5864;52.998;9.068;2022-10-31T02:36:20;13.80;99.90
11617;DHT22;5864;52.998;9.068;2022-10-31T02:38:55;13.80;99.90
11617;DHT22;5864;52.998;9.068;2022-10-31T02:41:32;13.80;99.90
11617;DHT22;5864;52.998;9.068;2022-10-31T02:44:07;13.80;99.90
11617;DHT22;5864;52.998;9.068;2022-10-31T02:46:42;13.80;99.90
11617;DHT22;5864;52.998;9.068;2022-10-31T02:49:18;13.70;99.90
11617;DHT22;5864;52.998;9.068;2022-10-31T02:51:49;13.80;99.90
11617;DHT22;5864;52.998;9.068;2022-10-31T02:54:22;13.70;99.90
11617;DHT22;5864;52.998;9.068;2022-10-31T02:56:53;13.70;99.90
11617;DHT22;5864;52.998;9.068;2022-10-31T02:59:22;13.70;99.90
11617;DHT22;5864;52.998;9.068;2022-10-31T03:02:21;13.70;99.90
11617;DHT22;5864;52.998;9.068;2022-10-31T03:07:59;13.60;99.90
11617;DHT22;5864;52.998;9.068;2022-10-31T03:10:35;13.60;99.90
11617;DHT22;5864;52.998;9.068;2022-10-31T03:13:08;13.60;99.90
11617;DHT22;5864;52.998;9.068;2022-10-31T03:15:37;13.60;99.90
11617;DHT22;5864;52.998;9.068;2022-10-31T03:18:09;13.60;99.90
11617;DHT22;5864;52.998;9.068;2022-10-31T03:20:39;13.50;99.90
11617;DHT22;5864;52.998;9.068;2022-10-31T03:23:11;13.60;99.90
11617;DHT22;5864;52.998;9.068;2022-10-31T03:25:39;13.60;99.90
11617;DHT22;5864;52.998;9.068;2022-10-31T03:28:10;13.50;99.90
11617;DHT22;5864;52.998;9.068;2022-10-31T03:30:41;13.50;99.90
11617;DHT22;5864;52.998;9.068;2022-10-31T03:33:13;13.40;99.90
11617;DHT22;5864;52.998;9.068;2022-10-31T03:35:44;13.40;99.90
11617;DHT22;5864;52.998;9.068;2022-10-31T03:38:13;13.40;99.90
11617;DHT22;5864;52.998;9.068;2022-10-31T03:40:43;13.30;99.90
11617;DHT22;5864;52.998;9.068;2022-10-31T03:43:15;13.30;99.90
11617;DHT22;5864;52.998;9.068;2022-10-31T03:45:45;13.30;99.90
11617;DHT22;5864;52.998;9.068;2022-10-31T03:48:16;13.30;99.90
11617;DHT22;5864;52.998;9.068;2022-10-31T03:50:49;13.30;99.90
11617;DHT22;5864;52.998;9.068;2022-10-31T03:53:24;13.30;99.90
11617;DHT22;5864;52.998;9.068;2022-10-31T03:55:56;13.30;99.90
11617;DHT22;5864;52.998;9.068;2022-10-31T03:58:28;13.20;99.90
11617;DHT22;5864;52.998;9.068;2022-10-31T04:00:58;13.20;99.90
11617;DHT22;5864;52.998;9.068;2022-10-31T04:03:31;13.20;99.90
11617;DHT22;5864;52.998;9.068;2022-10-31T04:06:03;13.10;99.90
11617;DHT22;5864;52.998;9.068;2022-10-31T04:08:33;13.00;99.90
11617;DHT22;5864;52.998;9.068;2022-10-31T04:11:03;13.10;99.90
11617;DHT22;5864;52.998;9.068;2022-10-31T04:13:33;13.00;99.90
11617;DHT22;5864;52.998;9.068;2022-10-31T04:16:01;13.10;99.90
11617;DHT22;5864;52.998;9.068;2022-10-31T04:18:30;13.10;99.90
11617;DHT22;5864;52.998;9.068;2022-10-31T04:21:01;13.10;99.90
11617;DHT22;5864;52.998;9.068;2022-10-31T04:23:30;13.10;99.90
11617;DHT22;5864;52.998;9.068;2022-10-31T04:25:57;13.10;99.90
11617;DHT22;5864;52.998;9.068;2022-10-31T04:28:25;13.10;99.90
11617;DHT22;5864;52.998;9.068;2022-10-31T04:30:53;13.10;99.90
11617;DHT22;5864;52.998;9.068;2022-10-31T04:33:20;13.00;99.90
11617;DHT22;5864;52.998;9.068;2022-10-31T04:35:49;13.10;99.90
11617;DHT22;5864;52.998;9.068;2022-10-31T04:38:16;13.00;99.90
11617;DHT22;5864;52.998;9.068;2022-10-31T04:40:44;13.00;99.90
11617;DHT22;5864;52.998;9.068;2022-10-31T04:43:12;13.00;99.90
11617;DHT22;5864;52.998;9.068;2022-10-31T04:45:39;13.00;99.90
11617;DHT22;5864;52.998;9.068;2022-10-31T04:48:07;13.00;99.90
11617;DHT22;5864;52.998;9.068;2022-10-31T04:50:34;13.00;99.90
11617;DHT22;5864;52.998;9.068;2022-10-31T04:53:02;13.00;99.90
11617;DHT22;5864;52.998;9.068;2022-10-31T04:55:30;13.00;99.90
11617;DHT22;5864;52.998;9.068;2022-10-31T04:57:57;13.00;99.90
11617;DHT22;5864;52.998;9.068;2022-10-31T05:00:25;12.90;99.90
11617;DHT22;5864;52.998;9.068;2022-10-31T05:02:54;12.90;99.90
11617;DHT22;5864;52.998;9.068;2022-10-31T05:05:23;12.90;99.90
11617;DHT22;5864;52.998;9.068;2022-10-31T05:07:52;12.90;99.90
11617;DHT22;5864;52.998;9.068;2022-10-31T05:10:22;12.90;99.90
11617;DHT22;5864;52.998;9.068;2022-10-31T05:12:51;12.90;99.90
11617;DHT22;5864;52.998;9.068;2022-10-31T05:15:19;12.90;99.90
11617;DHT22;5864;52.998;9.068;2022-10-31T05:17:47;12.90;99.90
11617;DHT22;5864;52.998;9.068;2022-10-31T05:20:16;12.90;99.90
11617;DHT22;5864;52.998;9.068;2022-10-31T05:22:43;12.90;99.90
11617;DHT22;5864;52.998;9.068;2022-10-31T05:25:11;12.80;99.90
11617;DHT22;5864;52.998;9.068;2022-10-31T05:27:40;12.80;99.90
11617;DHT22;5864;52.998;9.068;2022-10-31T05:30:08;12.80;99.90
11617;DHT22;5864;52.998;9.068;2022-10-31T05:32:37;12.80;99.90
11617;DHT22;5864;52.998;9.068;2022-10-31T05:35:05;12.70;99.90
11617;DHT22;5864;52.998;9.068;2022-10-31T05:37:34;12.70;99.90
11617;DHT22;5864;52.998;9.068;2022-10-31T05:40:02;12.70;99.90
11617;DHT22;5864;52.998;9.068;2022-10-31T05:42:29;12.70;99.90
11617;DHT22;5864;52.998;9.068;2022-10-31T05:44:58;12.70;99.90
11617;DHT22;5864;52.998;9.068;2022-10-31T05:47:25;12.70;99.90
11617;DHT22;5864;52.998;9.068;2022-10-31T05:49:53;12.60;99.90
11617;DHT22;5864;52.998;9.068;2022-10-31T05:52:20;12.50;99.90
11617;DHT22;5864;52.998;9.068;2022-10-31T05:54:47;12.50;99.90
11617;DHT22;5864;52.998;9.068;2022-10-31T05:57:15;12.50;99.90
11617;DHT22;5864;52.998;9.068;2022-10-31T05:59:42;12.40;99.90
11617;DHT22;5864;52.998;9.068;2022-10-31T06:02:11;12.30;99.90
11617;DHT22;5864;52.998;9.068;2022-10-31T06:04:39;12.20;99.90
11617;DHT22;5864;52.998;9.068;2022-10-31T06:07:07;12.20;99.90
11617;DHT22;5864;52.998;9.068;2022-10-31T06:09:34;12.20;99.90
11617;DHT22;5864;52.998;9.068;2022-10-31T06:12:01;12.10;99.90
11617;DHT22;5864;52.998;9.068;2022-10-31T06:14:28;12.10;99.90
11617;DHT22;5864;52.998;9.068;2022-10-31T06:16:56;12.10;99.90
11617;DHT22;5864;52.998;9.068;2022-10-31T06:19:24;12.00;99.90
11617;DHT22;5864;52.998;9.068;2022-10-31T06:21:52;12.00;99.90
11617;DHT22;5864;52.998;9.068;2022-10-31T06:24:19;11.90;99.90
11617;DHT22;5864;52.998;9.068;2022-10-31T06:26:46;11.90;99.90
11617;DHT22;5864;52.998;9.068;2022-10-31T06:29:14;11.90;99.90
11617;DHT22;5864;52.998;9.068;2022-10-31T06:31:41;11.90;99.90
11617;DHT22;5864;52.998;9.068;2022-10-31T06:34:08;11.90;99.90
11617;DHT22;5864;52.998;9.068;2022-10-31T06:36:37;11.90;99.90
11617;DHT22;5864;52.998;9.068;2022-10-31T06:39:04;11.90;99.90
11617;DHT22;5864;52.998;9.068;2022-10-31T06:41:32;11.90;99.90
11617;DHT22;5864;52.998;9.068;2022-10-31T06:43:59;11.90;99.90
11617;DHT22;5864;52.998;9.068;2022-10-31T06:46:26;11.90;99.90
11617;DHT22;5864;52.998;9.068;2022-10-31T06:48:54;11.90;99.90
11617;DHT22;5864;52.998;9.068;2022-10-31T06:51:21;11.90;99.90
11617;DHT22;5864;52.998;9.068;2022-10-31T06:53:49;12.00;99.90
11617;DHT22;5864;52.998;9.068;2022-10-31T06:56:17;12.10;99.90
11617;DHT22;5864;52.998;9.068;2022-10-31T06:58:44;12.10;99.90
11617;DHT22;5864;52.998;9.068;2022-10-31T07:01:11;12.20;99.90
11617;DHT22;5864;52.998;9.068;2022-10-31T07:03:39;12.30;99.90
11617;DHT22;5864;52.998;9.068;2022-10-31T07:06:06;12.30;99.90
11617;DHT22;5864;52.998;9.068;2022-10-31T07:08:33;12.40;99.90
11617;DHT22;5864;52.998;9.068;2022-10-31T07:11:02;12.50;99.90
11617;DHT22;5864;52.998;9.068;2022-10-31T07:13:29;12.50;99.90
11617;DHT22;5864;52.998;9.068;2022-10-31T07:16:00;12.50;99.90
11617;DHT22;5864;52.998;9.068;2022-10-31T07:18:28;12.40;99.90
11617;DHT22;5864;52.998;9.068;2022-10-31T07:20:55;12.40;99.90
11617;DHT22;5864;52.998;9.068;2022-10-31T07:23:22;12.40;99.90
11617;DHT22;5864;52.998;9.068;2022-10-31T07:25:54;12.40;99.90
11617;DHT22;5864;52.998;9.068;2022-10-31T07:28:23;12.40;99.90
11617;DHT22;5864;52.998;9.068;2022-10-31T07:30:51;12.40;99.90
11617;DHT22;5864;52.998;9.068;2022-10-31T07:33:18;12.40;99.90
11617;DHT22;5864;52.998;9.068;2022-10-31T07:35:46;12.50;99.90
11617;DHT22;5864;52.998;9.068;2022-10-31T07:38:14;12.70;99.90
11617;DHT22;5864;52.998;9.068;2022-10-31T07:40:42;12.60;99.90
11617;DHT22;5864;52.998;9.068;2022-10-31T07:43:10;12.60;99.90
11617;DHT22;5864;52.998;9.068;2022-10-31T07:45:39;10.60;99.90
11617;DHT22;5864;52.998;9.068;2022-10-31T07:48:07;12.80;99.90
11617;DHT22;5864;52.998;9.068;2022-10-31T07:50:34;12.70;99.90
11617;DHT22;5864;52.998;9.068;2022-10-31T07:53:03;12.70;99.90
11617;DHT22;5864;52.998;9.068;2022-10-31T07:55:31;12.60;99.90
11617;DHT22;5864;52.998;9.068;2022-10-31T07:57:59;12.50;99.90
11617;DHT22;5864;52.998;9.068;2022-10-31T08:00:27;12.40;99.90
11617;DHT22;5864;52.998;9.068;2022-10-31T08:02:59;12.40;99.90
11617;DHT22;5864;52.998;9.068;2022-10-31T08:05:28;12.40;99.90
11617;DHT22;5864;52.998;9.068;2022-10-31T08:07:56;12.40;99.90
11617;DHT22;5864;52.998;9.068;2022-10-31T08:10:24;12.40;99.90
11617;DHT22;5864;52.998;9.068;2022-10-31T08:12:58;12.40;99.90
11617;DHT22;5864;52.998;9.068;2022-10-31T08:15:26;12.50;99.90
11617;DHT22;5864;52.998;9.068;2022-10-31T08:17:53;12.50;99.90
11617;DHT22;5864;52.998;9.068;2022-10-31T08:20:22;12.60;99.90
11617;DHT22;5864;52.998;9.068;2022-10-31T08:22:56;12.60;99.90
11617;DHT22;5864;52.998;9.068;2022-10-31T08:25:24;12.60;99.90
11617;DHT22;5864;52.998;9.068;2022-10-31T08:27:53;12.70;99.90
11617;DHT22;5864;52.998;9.068;2022-10-31T08:30:21;13.00;99.90
11617;DHT22;5864;52.998;9.068;2022-10-31T08:32:57;13.10;99.90
11617;DHT22;5864;52.998;9.068;2022-10-31T08:35:26;13.10;99.90
11617;DHT22;5864;52.998;9.068;2022-10-31T08:37:53;12.90;99.90
11617;DHT22;5864;52.998;9.068;2022-10-31T08:40:21;12.90;99.90
11617;DHT22;5864;52.998;9.068;2022-10-31T08:42:55;13.00;99.90
11617;DHT22;5864;52.998;9.068;2022-10-31T08:45:23;12.90;99.90
11617;DHT22;5864;52.998;9.068;2022-10-31T08:47:51;12.90;99.90
11617;DHT22;5864;52.998;9.068;2022-10-31T08:50:18;13.00;99.90
11617;DHT22;5864;52.998;9.068;2022-10-31T08:52:47;13.00;99.90
11617;DHT22;5864;52.998;9.068;2022-10-31T08:55:15;13.00;99.90
11617;DHT22;5864;52.998;9.068;2022-10-31T08:57:42;13.00;99.90
11617;DHT22;5864;52.998;9.068;2022-10-31T09:00:11;13.10;99.90
11617;DHT22;5864;52.998;9.068;2022-10-31T09:02:38;13.20;99.90
11617;DHT22;5864;52.998;9.068;2022-10-31T09:05:06;13.30;99.90
11617;DHT22;5864;52.998;9.068;2022-10-31T09:07:34;13.30;99.90
11617;DHT22;5864;52.998;9.068;2022-10-31T09:10:03;13.30;99.90
11617;DHT22;5864;52.998;9.068;2022-10-31T09:12:30;13.30;99.90
11617;DHT22;5864;52.998;9.068;2022-10-31T09:14:58;13.40;99.90
11617;DHT22;5864;52.998;9.068;2022-10-31T09:17:26;13.40;99.90
11617;DHT22;5864;52.998;9.068;2022-10-31T09:19:55;13.30;99.90
11617;DHT22;5864;52.998;9.068;2022-10-31T09:22:23;13.40;99.90
11617;DHT22;5864;52.998;9.068;2022-10-31T09:24:50;13.50;99.90
11617;DHT22;5864;52.998;9.068;2022-10-31T09:27:19;13.70;99.90
11617;DHT22;5864;52.998;9.068;2022-10-31T09:29:46;13.70;99.90
11617;DHT22;5864;52.998;9.068;2022-10-31T09:32:13;13.70;99.90
11617;DHT22;5864;52.998;9.068;2022-10-31T09:34:40;13.60;99.90
11617;DHT22;5864;52.998;9.068;2022-10-31T09:37:08;13.70;99.90
11617;DHT22;5864;52.998;9.068;2022-10-31T09:39:35;13.70;99.90
11617;DHT22;5864;52.998;9.068;2022-10-31T09:42:15;13.80;99.90
11617;DHT22;5864;52.998;9.068;2022-10-31T09:44:51;13.80;99.90
11617;DHT22;5864;52.998;9.068;2022-10-31T09:47:27;13.80;99.90
11617;DHT22;5864;52.998;9.068;2022-10-31T09:50:06;13.80;99.90
11617;DHT22;5864;52.998;9.068;2022-10-31T09:52:43;14.00;99.90
11617;DHT22;5864;52.998;9.068;2022-10-31T09:55:16;14.00;99.90
11617;DHT22;5864;52.998;9.068;2022-10-31T09:57:44;14.10;99.90
11617;DHT22;5864;52.998;9.068;2022-10-31T10:00:17;14.20;99.90
11617;DHT22;5864;52.998;9.068;2022-10-31T10:02:49;14.50;99.90
11617;DHT22;5864;52.998;9.068;2022-10-31T10:05:21;15.10;99.90
11617;DHT22;5864;52.998;9.068;2022-10-31T10:07:54;15.50;99.90
11617;DHT22;5864;52.998;9.068;2022-10-31T10:10:30;15.80;99.90
11617;DHT22;5864;52.998;9.068;2022-10-31T10:13:14;16.00;99.90
11617;DHT22;5864;52.998;9.068;2022-10-31T10:16:03;16.00;99.90
11617;DHT22;5864;52.998;9.068;2022-10-31T10:18:43;15.80;99.90
11617;DHT22;5864;52.998;9.068;2022-10-31T10:21:24;15.40;99.90
11617;DHT22;5864;52.998;9.068;2022-10-31T10:24:05;15.30;99.90
11617;DHT22;5864;52.998;9.068;2022-10-31T10:26:37;14.20;99.90
11617;DHT22;5864;52.998;9.068;2022-10-31T10:29:17;15.00;99.90
11617;DHT22;5864;52.998;9.068;2022-10-31T10:31:49;14.90;99.90
11617;DHT22;5864;52.998;9.068;2022-10-31T10:34:22;14.90;99.90
11617;DHT22;5864;52.998;9.068;2022-10-31T10:36:56;14.80;99.90
11617;DHT22;5864;52.998;9.068;2022-10-31T10:39:29;14.70;99.90
11617;DHT22;5864;52.998;9.068;2022-10-31T10:41:58;14.70;99.90
11617;DHT22;5864;52.998;9.068;2022-10-31T10:44:45;14.50;99.90
11617;DHT22;5864;52.998;9.068;2022-10-31T10:47:36;14.40;99.90
11617;DHT22;5864;52.998;9.068;2022-10-31T10:50:13;15.30;99.90
11617;DHT22;5864;52.998;9.068;2022-10-31T10:52:48;14.30;99.90
11617;DHT22;5864;52.998;9.068;2022-10-31T10:55:26;14.40;99.90
11617;DHT22;5864;52.998;9.068;2022-10-31T10:57:59;14.60;99.90
11617;DHT22;5864;52.998;9.068;2022-10-31T11:00:30;14.60;99.90
11617;DHT22;5864;52.998;9.068;2022-10-31T11:02:59;14.70;99.90
11617;DHT22;5864;52.998;9.068;2022-10-31T11:05:33;14.70;99.90
11617;DHT22;5864;52.998;9.068;2022-10-31T11:08:01;14.70;99.90
11617;DHT22;5864;52.998;9.068;2022-10-31T11:10:28;14.70;99.90
11617;DHT22;5864;52.998;9.068;2022-10-31T11:13:06;14.60;99.90
11617;DHT22;5864;52.998;9.068;2022-10-31T11:15:38;13.90;99.90
11617;DHT22;5864;52.998;9.068;2022-10-31T11:18:19;15.00;99.90
11617;DHT22;5864;52.998;9.068;2022-10-31T11:20:52;15.00;99.90
11617;DHT22;5864;52.998;9.068;2022-10-31T11:23:20;14.90;99.90
11617;DHT22;5864;52.998;9.068;2022-10-31T11:25:50;15.00;99.90
11617;DHT22;5864;52.998;9.068;2022-10-31T11:28:18;14.90;99.90
11617;DHT22;5864;52.998;9.068;2022-10-31T11:30:48;15.10;99.90
11617;DHT22;5864;52.998;9.068;2022-10-31T11:33:20;15.10;99.90
11617;DHT22;5864;52.998;9.068;2022-10-31T11:35:48;15.00;99.90
11617;DHT22;5864;52.998;9.068;2022-10-31T11:38:19;15.10;99.90
11617;DHT22;5864;52.998;9.068;2022-10-31T11:40:54;15.10;99.90
11617;DHT22;5864;52.998;9.068;2022-10-31T11:43:23;15.20;99.90
11617;DHT22;5864;52.998;9.068;2022-10-31T11:45:51;15.20;99.90
11617;DHT22;5864;52.998;9.068;2022-10-31T11:48:21;15.10;99.90
11617;DHT22;5864;52.998;9.068;2022-10-31T11:50:51;15.20;99.90
11617;DHT22;5864;52.998;9.068;2022-10-31T11:53:22;15.10;99.90
11617;DHT22;5864;52.998;9.068;2022-10-31T11:56:02;14.90;99.90
11617;DHT22;5864;52.998;9.068;2022-10-31T11:58:30;15.00;99.90
11617;DHT22;5864;52.998;9.068;2022-10-31T12:00:58;15.00;99.90
11617;DHT22;5864;52.998;9.068;2022-10-31T12:03:42;14.90;99.90
11617;DHT22;5864;52.998;9.068;2022-10-31T12:06:15;14.80;99.90
11617;DHT22;5864;52.998;9.068;2022-10-31T12:08:44;14.80;99.90
11617;DHT22;5864;52.998;9.068;2022-10-31T12:11:28;14.90;99.90
11617;DHT22;5864;52.998;9.068;2022-10-31T12:14:12;14.80;99.90
11617;DHT22;5864;52.998;9.068;2022-10-31T12:16:48;14.90;99.90
11617;DHT22;5864;52.998;9.068;2022-10-31T12:19:27;14.90;99.90
11617;DHT22;5864;52.998;9.068;2022-10-31T12:22:08;14.80;99.90
11617;DHT22;5864;52.998;9.068;2022-10-31T12:28:04;14.80;99.90
11617;DHT22;5864;52.998;9.068;2022-10-31T12:30:46;14.90;99.90
11617;DHT22;5864;52.998;9.068;2022-10-31T12:33:27;14.80;99.90
11617;DHT22;5864;52.998;9.068;2022-10-31T12:36:12;14.90;99.90
11617;DHT22;5864;52.998;9.068;2022-10-31T12:38:54;14.80;99.90
11617;DHT22;5864;52.998;9.068;2022-10-31T12:41:34;14.70;99.90
11617;DHT22;5864;52.998;9.068;2022-10-31T12:44:06;14.70;99.90
11617;DHT22;5864;52.998;9.068;2022-10-31T12:46:57;14.70;99.90
11617;DHT22;5864;52.998;9.068;2022-10-31T12:49:49;14.60;99.90
11617;DHT22;5864;52.998;9.068;2022-10-31T12:52:35;14.60;99.90
11617;DHT22;5864;52.998;9.068;2022-10-31T12:55:13;14.70;99.90
11617;DHT22;5864;52.998;9.068;2022-10-31T12:57:46;14.70;99.90
11617;DHT22;5864;52.998;9.068;2022-10-31T13:00:16;14.70;99.90
11617;DHT22;5864;52.998;9.068;2022-10-31T13:02:49;14.60;99.90
11617;DHT22;5864;52.998;9.068;2022-10-31T13:05:22;14.70;99.90
11617;DHT22;5864;52.998;9.068;2022-10-31T13:07:57;14.70;99.90
11617;DHT22;5864;52.998;9.068;2022-10-31T13:10:29;14.60;99.90
11617;DHT22;5864;52.998;9.068;2022-10-31T13:13:02;14.60;99.90
11617;DHT22;5864;52.998;9.068;2022-10-31T13:15:39;14.70;99.90
11617;DHT22;5864;52.998;9.068;2022-10-31T13:18:14;14.70;99.90
11617;DHT22;5864;52.998;9.068;2022-10-31T13:20:47;14.80;99.90
11617;DHT22;5864;52.998;9.068;2022-10-31T13:23:20;14.80;99.90
11617;DHT22;5864;52.998;9.068;2022-10-31T13:25:53;14.80;99.90
11617;DHT22;5864;52.998;9.068;2022-10-31T13:28:27;14.80;99.90
11617;DHT22;5864;52.998;9.068;2022-10-31T13:30:55;14.70;99.90
11617;DHT22;5864;52.998;9.068;2022-10-31T13:33:26;14.80;99.90
11617;DHT22;5864;52.998;9.068;2022-10-31T13:36:12;14.80;99.90
11617;DHT22;5864;52.998;9.068;2022-10-31T13:38:49;14.70;99.90
11617;DHT22;5864;52.998;9.068;2022-10-31T13:41:30;14.60;99.90
11617;DHT22;5864;52.998;9.068;2022-10-31T13:44:02;14.60;99.90
11617;DHT22;5864;52.998;9.068;2022-10-31T13:46:37;14.60;99.90
11617;DHT22;5864;52.998;9.068;2022-10-31T13:49:24;14.80;99.90
11617;DHT22;5864;52.998;9.068;2022-10-31T13:51:52;14.90;99.90
11617;DHT22;5864;52.998;9.068;2022-10-31T13:54:22;14.90;99.90
11617;DHT22;5864;52.998;9.068;2022-10-31T13:56:51;14.80;99.90
11617;DHT22;5864;52.998;9.068;2022-10-31T13:59:21;14.90;99.90
11617;DHT22;5864;52.998;9.068;2022-10-31T14:01:52;14.90;99.90
11617;DHT22;5864;52.998;9.068;2022-10-31T14:04:22;15.00;99.90
11617;DHT22;5864;52.998;9.068;2022-10-31T14:06:55;15.10;99.90
11617;DHT22;5864;52.998;9.068;2022-10-31T14:09:31;15.10;99.90
11617;DHT22;5864;52.998;9.068;2022-10-31T14:12:02;15.00;99.90
11617;DHT22;5864;52.998;9.068;2022-10-31T14:14:35;15.10;99.90
11617;DHT22;5864;52.998;9.068;2022-10-31T14:17:17;15.20;99.90
11617;DHT22;5864;52.998;9.068;2022-10-31T14:19:58;15.20;99.90
11617;DHT22;5864;52.998;9.068;2022-10-31T14:22:29;15.20;99.90
11617;DHT22;5864;52.998;9.068;2022-10-31T14:24:58;15.10;99.90
11617;DHT22;5864;52.998;9.068;2022-10-31T14:27:49;15.10;99.90
11617;DHT22;5864;52.998;9.068;2022-10-31T14:30:20;14.90;99.90
11617;DHT22;5864;52.998;9.068;2022-10-31T14:32:53;15.00;99.90
11617;DHT22;5864;52.998;9.068;2022-10-31T14:35:25;14.90;99.90
11617;DHT22;5864;52.998;9.068;2022-10-31T14:38:10;14.90;99.90
11617;DHT22;5864;52.998;9.068;2022-10-31T14:40:53;14.80;99.90
11617;DHT22;5864;52.998;9.068;2022-10-31T14:43:35;14.80;99.90
11617;DHT22;5864;52.998;9.068;2022-10-31T14:46:13;14.70;99.90
11617;DHT22;5864;52.998;9.068;2022-10-31T14:48:51;14.70;99.90
11617;DHT22;5864;52.998;9.068;2022-10-31T14:51:22;14.60;99.90
11617;DHT22;5864;52.998;9.068;2022-10-31T14:53:52;14.60;99.90
11617;DHT22;5864;52.998;9.068;2022-10-31T14:56:26;14.50;99.90
11617;DHT22;5864;52.998;9.068;2022-10-31T14:58:56;14.40;99.90
11617;DHT22;5864;52.998;9.068;2022-10-31T15:01:26;14.50;99.90
11617;DHT22;5864;52.998;9.068;2022-10-31T15:03:58;14.40;99.90
11617;DHT22;5864;52.998;9.068;2022-10-31T15:06:31;14.50;99.90
11617;DHT22;5864;52.998;9.068;2022-10-31T15:09:04;14.60;99.90
11617;DHT22;5864;52.998;9.068;2022-10-31T15:11:38;14.60;99.90
11617;DHT22;5864;52.998;9.068;2022-10-31T15:14:21;14.60;99.90
11617;DHT22;5864;52.998;9.068;2022-10-31T15:16:49;14.60;99.90
11617;DHT22;5864;52.998;9.068;2022-10-31T15:19:20;14.50;99.90
11617;DHT22;5864;52.998;9.068;2022-10-31T15:21:50;14.50;99.90
11617;DHT22;5864;52.998;9.068;2022-10-31T15:24:18;14.50;99.90
11617;DHT22;5864;52.998;9.068;2022-10-31T15:26:50;14.50;99.90
11617;DHT22;5864;52.998;9.068;2022-10-31T15:29:20;14.40;99.90
11617;DHT22;5864;52.998;9.068;2022-10-31T15:31:52;14.40;99.90
11617;DHT22;5864;52.998;9.068;2022-10-31T15:34:24;14.30;99.90
11617;DHT22;5864;52.998;9.068;2022-10-31T15:36:52;14.30;99.90
11617;DHT22;5864;52.998;9.068;2022-10-31T15:39:20;14.30;99.90
11617;DHT22;5864;52.998;9.068;2022-10-31T15:41:51;14.20;99.90
11617;DHT22;5864;52.998;9.068;2022-10-31T15:44:22;14.30;99.90
11617;DHT22;5864;52.998;9.068;2022-10-31T15:46:58;14.30;99.90
11617;DHT22;5864;52.998;9.068;2022-10-31T15:49:33;14.30;99.90
11617;DHT22;5864;52.998;9.068;2022-10-31T15:52:26;14.30;99.90
11617;DHT22;5864;52.998;9.068;2022-10-31T15:54:58;14.40;99.90
11617;DHT22;5864;52.998;9.068;2022-10-31T15:57:28;14.40;99.90
11617;DHT22;5864;52.998;9.068;2022-10-31T15:59:56;14.50;99.90
11617;DHT22;5864;52.998;9.068;2022-10-31T16:02:25;14.40;99.90
11617;DHT22;5864;52.998;9.068;2022-10-31T16:04:55;14.40;99.90
11617;DHT22;5864;52.998;9.068;2022-10-31T16:07:23;14.50;99.90
11617;DHT22;5864;52.998;9.068;2022-10-31T16:09:54;14.50;99.90
11617;DHT22;5864;52.998;9.068;2022-10-31T16:12:22;14.30;99.90
11617;DHT22;5864;52.998;9.068;2022-10-31T16:14:53;14.40;99.90
11617;DHT22;5864;52.998;9.068;2022-10-31T16:17:23;14.30;99.90
11617;DHT22;5864;52.998;9.068;2022-10-31T16:19:55;14.30;99.90